sensor_id;sensor_type;location;lat;lon;timestamp;P1;durP1;ratioP1;P2;durP2;ratioP2
23684;SDS011;12020;51.384;6.908;2023-02-28T00:00:34;8.45;;;7.65;;
23684;SDS011;12020;51.384;6.908;2023-02-28T00:03:00;9.65;;;7.68;;
23684;SDS011;12020;51.384;6.908;2023-02-28T00:05:27;7.97;;;7.22;;
23684;SDS011;12020;51.384;6.908;2023-02-28T00:07:54;9.18;;;7.80;;
23684;SDS011;12020;51.384;6.908;2023-02-28T00:10:27;8.20;;;7.40;;
23684;SDS011;12020;51.384;6.908;2023-02-28T00:12:55;9.55;;;7.50;;
23684;SDS011;12020;51.384;6.908;2023-02-28T00:15:24;7.68;;;6.90;;
23684;SDS011;12020;51.384;6.908;2023-02-28T00:17:50;8.25;;;7.45;;
23684;SDS011;12020;51.384;6.908;2023-02-28T00:20:16;8.23;;;6.80;;
23684;SDS011;12020;51.384;6.908;2023-02-28T00:22:47;8.30;;;7.43;;
23684;SDS011;12020;51.384;6.908;2023-02-28T00:25:15;7.82;;;6.47;;
23684;SDS011;12020;51.384;6.908;2023-02-28T00:27:43;7.32;;;5.75;;
23684;SDS011;12020;51.384;6.908;2023-02-28T00:30:11;5.97;;;5.38;;
23684;SDS011;12020;51.384;6.908;2023-02-28T00:32:38;6.20;;;5.10;;
23684;SDS011;12020;51.384;6.908;2023-02-28T00:35:05;6.10;;;5.32;;
23684;SDS011;12020;51.384;6.908;2023-02-28T00:37:31;6.80;;;5.10;;
23684;SDS011;12020;51.384;6.908;2023-02-28T00:39:57;6.15;;;4.75;;
23684;SDS011;12020;51.384;6.908;2023-02-28T00:42:23;5.97;;;4.78;;
23684;SDS011;12020;51.384;6.908;2023-02-28T00:44:49;6.13;;;5.00;;
23684;SDS011;12020;51.384;6.908;2023-02-28T00:47:15;6.10;;;4.90;;
23684;SDS011;12020;51.384;6.908;2023-02-28T00:49:41;7.03;;;5.07;;
23684;SDS011;12020;51.384;6.908;2023-02-28T00:52:06;5.53;;;4.72;;
23684;SDS011;12020;51.384;6.908;2023-02-28T00:54:32;6.03;;;4.70;;
23684;SDS011;12020;51.384;6.908;2023-02-28T00:56:58;6.20;;;4.78;;
23684;SDS011;12020;51.384;6.908;2023-02-28T00:59:24;6.20;;;4.45;;
23684;SDS011;12020;51.384;6.908;2023-02-28T01:01:50;7.78;;;4.90;;
23684;SDS011;12020;51.384;6.908;2023-02-28T01:04:16;5.30;;;4.53;;
23684;SDS011;12020;51.384;6.908;2023-02-28T01:06:41;5.17;;;4.37;;
23684;SDS011;12020;51.384;6.908;2023-02-28T01:09:08;6.57;;;4.63;;
23684;SDS011;12020;51.384;6.908;2023-02-28T01:11:34;6.05;;;4.70;;
23684;SDS011;12020;51.384;6.908;2023-02-28T01:14:01;6.32;;;4.15;;
23684;SDS011;12020;51.384;6.908;2023-02-28T01:16:27;5.30;;;4.35;;
23684;SDS011;12020;51.384;6.908;2023-02-28T01:18:53;6.43;;;4.60;;
23684;SDS011;12020;51.384;6.908;2023-02-28T01:21:19;7.40;;;4.40;;
23684;SDS011;12020;51.384;6.908;2023-02-28T01:23:46;5.50;;;4.57;;
23684;SDS011;12020;51.384;6.908;2023-02-28T01:26:17;5.70;;;4.40;;
23684;SDS011;12020;51.384;6.908;2023-02-28T01:28:47;6.15;;;4.40;;
23684;SDS011;12020;51.384;6.908;2023-02-28T01:31:14;5.65;;;4.30;;
23684;SDS011;12020;51.384;6.908;2023-02-28T01:33:40;5.78;;;4.32;;
23684;SDS011;12020;51.384;6.908;2023-02-28T01:36:08;5.60;;;4.20;;
23684;SDS011;12020;51.384;6.908;2023-02-28T01:38:37;4.88;;;4.20;;
23684;SDS011;12020;51.384;6.908;2023-02-28T01:41:02;5.32;;;4.10;;
23684;SDS011;12020;51.384;6.908;2023-02-28T01:46:21;4.77;;;4.27;;
23684;SDS011;12020;51.384;6.908;2023-02-28T01:51:29;5.38;;;4.13;;
23684;SDS011;12020;51.384;6.908;2023-02-28T01:54:03;5.85;;;4.10;;
23684;SDS011;12020;51.384;6.908;2023-02-28T01:56:38;6.45;;;4.50;;
23684;SDS011;12020;51.384;6.908;2023-02-28T01:59:29;5.45;;;4.07;;
23684;SDS011;12020;51.384;6.908;2023-02-28T02:02:11;5.93;;;4.20;;
23684;SDS011;12020;51.384;6.908;2023-02-28T02:04:39;5.20;;;4.35;;
23684;SDS011;12020;51.384;6.908;2023-02-28T02:07:12;5.45;;;4.30;;
23684;SDS011;12020;51.384;6.908;2023-02-28T02:09:39;6.10;;;4.40;;
23684;SDS011;12020;51.384;6.908;2023-02-28T02:12:09;5.85;;;4.47;;
23684;SDS011;12020;51.384;6.908;2023-02-28T02:15:05;5.47;;;4.57;;
23684;SDS011;12020;51.384;6.908;2023-02-28T02:17:43;5.97;;;4.50;;
23684;SDS011;12020;51.384;6.908;2023-02-28T02:23:13;4.80;;;4.32;;
23684;SDS011;12020;51.384;6.908;2023-02-28T02:32:18;7.78;;;4.88;;
23684;SDS011;12020;51.384;6.908;2023-02-28T02:37:36;7.20;;;5.63;;
23684;SDS011;12020;51.384;6.908;2023-02-28T02:45:46;6.43;;;5.40;;
23684;SDS011;12020;51.384;6.908;2023-02-28T02:48:23;6.90;;;5.33;;
23684;SDS011;12020;51.384;6.908;2023-02-28T02:50:54;8.15;;;6.05;;
23684;SDS011;12020;51.384;6.908;2023-02-28T02:53:23;7.43;;;6.40;;
23684;SDS011;12020;51.384;6.908;2023-02-28T02:55:54;7.78;;;6.50;;
23684;SDS011;12020;51.384;6.908;2023-02-28T02:58:22;5.68;;;4.75;;
23684;SDS011;12020;51.384;6.908;2023-02-28T03:00:53;7.28;;;4.97;;
23684;SDS011;12020;51.384;6.908;2023-02-28T03:03:24;5.78;;;4.60;;
23684;SDS011;12020;51.384;6.908;2023-02-28T03:05:56;4.65;;;4.20;;
23684;SDS011;12020;51.384;6.908;2023-02-28T03:08:24;5.78;;;4.20;;
23684;SDS011;12020;51.384;6.908;2023-02-28T03:10:56;5.65;;;4.30;;
23684;SDS011;12020;51.384;6.908;2023-02-28T03:22:45;6.97;;;5.68;;
23684;SDS011;12020;51.384;6.908;2023-02-28T03:35:16;8.02;;;6.53;;
23684;SDS011;12020;51.384;6.908;2023-02-28T03:37:48;8.02;;;7.22;;
23684;SDS011;12020;51.384;6.908;2023-02-28T03:47:14;7.70;;;6.90;;
23684;SDS011;12020;51.384;6.908;2023-02-28T03:53:45;5.85;;;3.53;;
23684;SDS011;12020;51.384;6.908;2023-02-28T04:03:11;6.00;;;3.70;;
23684;SDS011;12020;51.384;6.908;2023-02-28T04:06:20;5.18;;;3.63;;
23684;SDS011;12020;51.384;6.908;2023-02-28T04:08:47;5.47;;;3.97;;
23684;SDS011;12020;51.384;6.908;2023-02-28T04:14:37;8.47;;;7.57;;
23684;SDS011;12020;51.384;6.908;2023-02-28T04:20:25;9.35;;;8.07;;
23684;SDS011;12020;51.384;6.908;2023-02-28T04:22:52;8.65;;;6.35;;
23684;SDS011;12020;51.384;6.908;2023-02-28T04:38:01;5.18;;;4.40;;
23684;SDS011;12020;51.384;6.908;2023-02-28T04:40:28;6.53;;;5.53;;
23684;SDS011;12020;51.384;6.908;2023-02-28T04:55:29;4.55;;;4.07;;
23684;SDS011;12020;51.384;6.908;2023-02-28T04:58:32;5.30;;;4.07;;
23684;SDS011;12020;51.384;6.908;2023-02-28T05:01:06;4.88;;;4.35;;
23684;SDS011;12020;51.384;6.908;2023-02-28T05:03:41;6.38;;;5.30;;
23684;SDS011;12020;51.384;6.908;2023-02-28T05:06:09;5.38;;;4.68;;
23684;SDS011;12020;51.384;6.908;2023-02-28T05:17:56;5.40;;;4.43;;
23684;SDS011;12020;51.384;6.908;2023-02-28T05:23:46;5.03;;;4.32;;
23684;SDS011;12020;51.384;6.908;2023-02-28T05:26:33;5.55;;;4.13;;
23684;SDS011;12020;51.384;6.908;2023-02-28T05:38:47;4.60;;;4.10;;
23684;SDS011;12020;51.384;6.908;2023-02-28T05:52:52;5.68;;;4.32;;
23684;SDS011;12020;51.384;6.908;2023-02-28T05:55:27;5.15;;;4.10;;
23684;SDS011;12020;51.384;6.908;2023-02-28T05:57:53;5.00;;;3.90;;
23684;SDS011;12020;51.384;6.908;2023-02-28T06:09:21;5.73;;;4.70;;
23684;SDS011;12020;51.384;6.908;2023-02-28T06:11:47;5.28;;;4.05;;
23684;SDS011;12020;51.384;6.908;2023-02-28T06:14:14;4.78;;;4.20;;
23684;SDS011;12020;51.384;6.908;2023-02-28T06:16:41;5.63;;;4.50;;
23684;SDS011;12020;51.384;6.908;2023-02-28T06:19:08;4.55;;;3.88;;
23684;SDS011;12020;51.384;6.908;2023-02-28T06:21:34;4.90;;;3.30;;
23684;SDS011;12020;51.384;6.908;2023-02-28T06:24:01;5.80;;;4.30;;
23684;SDS011;12020;51.384;6.908;2023-02-28T06:26:27;6.13;;;4.20;;
23684;SDS011;12020;51.384;6.908;2023-02-28T06:28:53;6.00;;;4.50;;
23684;SDS011;12020;51.384;6.908;2023-02-28T06:31:19;5.25;;;4.20;;
23684;SDS011;12020;51.384;6.908;2023-02-28T06:33:47;6.65;;;4.88;;
23684;SDS011;12020;51.384;6.908;2023-02-28T06:36:14;6.15;;;4.80;;
23684;SDS011;12020;51.384;6.908;2023-02-28T06:38:44;5.03;;;4.53;;
23684;SDS011;12020;51.384;6.908;2023-02-28T06:43:43;4.32;;;3.90;;
23684;SDS011;12020;51.384;6.908;2023-02-28T06:46:12;5.57;;;4.43;;
23684;SDS011;12020;51.384;6.908;2023-02-28T06:48:39;6.70;;;4.68;;
23684;SDS011;12020;51.384;6.908;2023-02-28T06:51:07;7.50;;;4.70;;
23684;SDS011;12020;51.384;6.908;2023-02-28T06:53:43;5.78;;;4.28;;
23684;SDS011;12020;51.384;6.908;2023-02-28T06:56:10;5.67;;;4.87;;
23684;SDS011;12020;51.384;6.908;2023-02-28T06:58:39;6.93;;;5.65;;
23684;SDS011;12020;51.384;6.908;2023-02-28T07:01:05;6.70;;;5.90;;
23684;SDS011;12020;51.384;6.908;2023-02-28T07:03:31;8.13;;;5.70;;
23684;SDS011;12020;51.384;6.908;2023-02-28T07:05:58;6.90;;;5.40;;
23684;SDS011;12020;51.384;6.908;2023-02-28T07:08:24;9.55;;;5.78;;
23684;SDS011;12020;51.384;6.908;2023-02-28T07:10:53;8.13;;;6.28;;
23684;SDS011;12020;51.384;6.908;2023-02-28T07:13:20;9.95;;;6.50;;
23684;SDS011;12020;51.384;6.908;2023-02-28T07:15:52;7.65;;;6.70;;
23684;SDS011;12020;51.384;6.908;2023-02-28T07:18:23;8.85;;;7.05;;
23684;SDS011;12020;51.384;6.908;2023-02-28T07:20:48;11.00;;;7.85;;
23684;SDS011;12020;51.384;6.908;2023-02-28T07:23:14;8.13;;;7.33;;
23684;SDS011;12020;51.384;6.908;2023-02-28T07:25:40;9.33;;;7.63;;
23684;SDS011;12020;51.384;6.908;2023-02-28T07:28:06;8.40;;;7.50;;
23684;SDS011;12020;51.384;6.908;2023-02-28T07:30:31;7.47;;;6.07;;
23684;SDS011;12020;51.384;6.908;2023-02-28T07:32:57;6.40;;;5.80;;
23684;SDS011;12020;51.384;6.908;2023-02-28T07:35:22;8.13;;;6.72;;
23684;SDS011;12020;51.384;6.908;2023-02-28T07:37:48;6.53;;;5.93;;
23684;SDS011;12020;51.384;6.908;2023-02-28T07:40:14;6.87;;;5.67;;
23684;SDS011;12020;51.384;6.908;2023-02-28T07:42:41;5.38;;;4.68;;
23684;SDS011;12020;51.384;6.908;2023-02-28T07:45:07;6.20;;;4.55;;
23684;SDS011;12020;51.384;6.908;2023-02-28T07:47:38;6.05;;;4.95;;
23684;SDS011;12020;51.384;6.908;2023-02-28T07:50:05;5.47;;;4.20;;
23684;SDS011;12020;51.384;6.908;2023-02-28T07:52:31;4.70;;;4.15;;
23684;SDS011;12020;51.384;6.908;2023-02-28T07:54:57;5.28;;;4.43;;
23684;SDS011;12020;51.384;6.908;2023-02-28T07:57:23;4.83;;;4.10;;
23684;SDS011;12020;51.384;6.908;2023-02-28T07:59:49;5.68;;;4.28;;
23684;SDS011;12020;51.384;6.908;2023-02-28T08:02:15;5.03;;;3.85;;
23684;SDS011;12020;51.384;6.908;2023-02-28T08:04:42;4.97;;;4.07;;
23684;SDS011;12020;51.384;6.908;2023-02-28T08:07:08;5.90;;;3.90;;
23684;SDS011;12020;51.384;6.908;2023-02-28T08:09:38;4.50;;;4.00;;
23684;SDS011;12020;51.384;6.908;2023-02-28T08:12:06;4.18;;;3.72;;
23684;SDS011;12020;51.384;6.908;2023-02-28T08:14:33;4.60;;;3.87;;
23684;SDS011;12020;51.384;6.908;2023-02-28T08:16:59;3.90;;;3.50;;
23684;SDS011;12020;51.384;6.908;2023-02-28T08:19:25;3.90;;;3.50;;
23684;SDS011;12020;51.384;6.908;2023-02-28T08:21:51;4.68;;;3.75;;
23684;SDS011;12020;51.384;6.908;2023-02-28T08:24:17;4.50;;;3.50;;
23684;SDS011;12020;51.384;6.908;2023-02-28T08:26:42;5.00;;;3.73;;
23684;SDS011;12020;51.384;6.908;2023-02-28T08:29:08;4.73;;;3.50;;
23684;SDS011;12020;51.384;6.908;2023-02-28T08:31:33;4.30;;;3.83;;
23684;SDS011;12020;51.384;6.908;2023-02-28T08:34:04;5.32;;;4.03;;
23684;SDS011;12020;51.384;6.908;2023-02-28T08:36:30;4.70;;;3.85;;
23684;SDS011;12020;51.384;6.908;2023-02-28T08:38:56;5.00;;;3.83;;
23684;SDS011;12020;51.384;6.908;2023-02-28T08:41:22;3.67;;;3.00;;
23684;SDS011;12020;51.384;6.908;2023-02-28T08:43:48;4.50;;;3.40;;
23684;SDS011;12020;51.384;6.908;2023-02-28T08:46:14;3.53;;;3.20;;
23684;SDS011;12020;51.384;6.908;2023-02-28T08:48:39;4.70;;;3.57;;
23684;SDS011;12020;51.384;6.908;2023-02-28T08:51:07;5.03;;;3.40;;
23684;SDS011;12020;51.384;6.908;2023-02-28T08:53:37;4.22;;;3.40;;
23684;SDS011;12020;51.384;6.908;2023-02-28T08:58:31;3.38;;;3.03;;
23684;SDS011;12020;51.384;6.908;2023-02-28T09:00:57;3.60;;;3.00;;
23684;SDS011;12020;51.384;6.908;2023-02-28T09:03:23;4.38;;;3.28;;
23684;SDS011;12020;51.384;6.908;2023-02-28T09:05:54;3.97;;;3.20;;
23684;SDS011;12020;51.384;6.908;2023-02-28T09:08:22;4.85;;;3.10;;
23684;SDS011;12020;51.384;6.908;2023-02-28T09:10:52;3.87;;;2.90;;
23684;SDS011;12020;51.384;6.908;2023-02-28T09:13:19;3.42;;;2.90;;
23684;SDS011;12020;51.384;6.908;2023-02-28T09:15:45;3.75;;;3.08;;
23684;SDS011;12020;51.384;6.908;2023-02-28T09:18:11;4.30;;;2.90;;
23684;SDS011;12020;51.384;6.908;2023-02-28T09:20:38;4.75;;;2.95;;
23684;SDS011;12020;51.384;6.908;2023-02-28T09:23:05;3.30;;;2.65;;
23684;SDS011;12020;51.384;6.908;2023-02-28T09:25:34;3.58;;;2.72;;
23684;SDS011;12020;51.384;6.908;2023-02-28T09:28:00;4.80;;;2.90;;
23684;SDS011;12020;51.384;6.908;2023-02-28T09:30:26;3.20;;;2.90;;
23684;SDS011;12020;51.384;6.908;2023-02-28T09:32:52;2.83;;;2.58;;
23684;SDS011;12020;51.384;6.908;2023-02-28T09:35:19;3.22;;;2.60;;
23684;SDS011;12020;51.384;6.908;2023-02-28T09:37:46;3.75;;;2.63;;
23684;SDS011;12020;51.384;6.908;2023-02-28T09:40:17;4.28;;;2.70;;
23684;SDS011;12020;51.384;6.908;2023-02-28T09:42:47;3.58;;;2.53;;
23684;SDS011;12020;51.384;6.908;2023-02-28T09:45:32;3.72;;;2.60;;
23684;SDS011;12020;51.384;6.908;2023-02-28T09:48:01;2.95;;;2.60;;
23684;SDS011;12020;51.384;6.908;2023-02-28T09:50:41;3.50;;;2.90;;
23684;SDS011;12020;51.384;6.908;2023-02-28T09:53:28;3.97;;;2.75;;
23684;SDS011;12020;51.384;6.908;2023-02-28T09:55:59;3.20;;;2.33;;
23684;SDS011;12020;51.384;6.908;2023-02-28T10:01:21;2.55;;;2.25;;
23684;SDS011;12020;51.384;6.908;2023-02-28T10:04:10;3.60;;;2.17;;
23684;SDS011;12020;51.384;6.908;2023-02-28T10:06:58;2.75;;;2.40;;
23684;SDS011;12020;51.384;6.908;2023-02-28T10:09:27;3.55;;;2.38;;
23684;SDS011;12020;51.384;6.908;2023-02-28T10:12:00;3.72;;;2.08;;
23684;SDS011;12020;51.384;6.908;2023-02-28T10:14:29;2.65;;;2.22;;
23684;SDS011;12020;51.384;6.908;2023-02-28T10:16:59;2.58;;;2.20;;
23684;SDS011;12020;51.384;6.908;2023-02-28T10:25:17;2.87;;;2.00;;
23684;SDS011;12020;51.384;6.908;2023-02-28T10:27:44;2.27;;;2.00;;
23684;SDS011;12020;51.384;6.908;2023-02-28T10:30:10;3.05;;;2.00;;
23684;SDS011;12020;51.384;6.908;2023-02-28T10:32:38;2.38;;;2.00;;
23684;SDS011;12020;51.384;6.908;2023-02-28T10:37:42;2.80;;;2.10;;
23684;SDS011;12020;51.384;6.908;2023-02-28T10:45:28;3.08;;;2.20;;
23684;SDS011;12020;51.384;6.908;2023-02-28T10:53:10;3.13;;;1.77;;
23684;SDS011;12020;51.384;6.908;2023-02-28T11:01:22;2.20;;;1.80;;
23684;SDS011;12020;51.384;6.908;2023-02-28T11:04:00;2.38;;;1.80;;
23684;SDS011;12020;51.384;6.908;2023-02-28T11:06:29;2.37;;;1.90;;
23684;SDS011;12020;51.384;6.908;2023-02-28T11:08:59;2.95;;;1.70;;
23684;SDS011;12020;51.384;6.908;2023-02-28T11:11:29;3.53;;;1.75;;
23684;SDS011;12020;51.384;6.908;2023-02-28T11:14:05;2.70;;;1.70;;
23684;SDS011;12020;51.384;6.908;2023-02-28T11:16:41;2.25;;;1.70;;
23684;SDS011;12020;51.384;6.908;2023-02-28T11:19:07;2.10;;;1.90;;
23684;SDS011;12020;51.384;6.908;2023-02-28T11:22:05;2.25;;;1.70;;
23684;SDS011;12020;51.384;6.908;2023-02-28T11:24:33;2.25;;;1.80;;
23684;SDS011;12020;51.384;6.908;2023-02-28T11:27:01;3.72;;;2.10;;
23684;SDS011;12020;51.384;6.908;2023-02-28T11:29:29;2.80;;;1.90;;
23684;SDS011;12020;51.384;6.908;2023-02-28T11:34:41;2.10;;;1.58;;
23684;SDS011;12020;51.384;6.908;2023-02-28T11:37:12;2.23;;;1.80;;
23684;SDS011;12020;51.384;6.908;2023-02-28T11:39:43;2.35;;;1.92;;
23684;SDS011;12020;51.384;6.908;2023-02-28T11:47:47;2.25;;;1.85;;
23684;SDS011;12020;51.384;6.908;2023-02-28T12:01:21;2.55;;;2.05;;
23684;SDS011;12020;51.384;6.908;2023-02-28T12:04:25;2.90;;;2.15;;
23684;SDS011;12020;51.384;6.908;2023-02-28T12:09:52;2.58;;;2.15;;
23684;SDS011;12020;51.384;6.908;2023-02-28T12:17:55;2.70;;;2.05;;
23684;SDS011;12020;51.384;6.908;2023-02-28T12:20:41;2.28;;;2.03;;
23684;SDS011;12020;51.384;6.908;2023-02-28T12:28:59;2.42;;;1.90;;
23684;SDS011;12020;51.384;6.908;2023-02-28T12:32:06;3.33;;;2.00;;
23684;SDS011;12020;51.384;6.908;2023-02-28T12:34:38;4.53;;;2.38;;
23684;SDS011;12020;51.384;6.908;2023-02-28T12:37:17;4.10;;;2.42;;
23684;SDS011;12020;51.384;6.908;2023-02-28T12:39:50;3.13;;;2.20;;
23684;SDS011;12020;51.384;6.908;2023-02-28T12:44:58;3.10;;;2.35;;
23684;SDS011;12020;51.384;6.908;2023-02-28T12:47:26;2.55;;;2.00;;
23684;SDS011;12020;51.384;6.908;2023-02-28T12:50:03;2.10;;;1.90;;
23684;SDS011;12020;51.384;6.908;2023-02-28T12:58:20;2.63;;;2.35;;
23684;SDS011;12020;51.384;6.908;2023-02-28T13:01:17;2.67;;;2.30;;
23684;SDS011;12020;51.384;6.908;2023-02-28T13:06:34;4.00;;;2.47;;
23684;SDS011;12020;51.384;6.908;2023-02-28T13:09:21;3.38;;;2.35;;
23684;SDS011;12020;51.384;6.908;2023-02-28T13:11:53;3.83;;;2.35;;
23684;SDS011;12020;51.384;6.908;2023-02-28T13:17:10;2.65;;;2.45;;
23684;SDS011;12020;51.384;6.908;2023-02-28T13:19:45;3.30;;;2.40;;
23684;SDS011;12020;51.384;6.908;2023-02-28T13:28:11;3.42;;;2.50;;
23684;SDS011;12020;51.384;6.908;2023-02-28T13:33:30;2.50;;;2.30;;
23684;SDS011;12020;51.384;6.908;2023-02-28T13:36:27;3.03;;;2.40;;
23684;SDS011;12020;51.384;6.908;2023-02-28T13:44:06;4.15;;;2.70;;
23684;SDS011;12020;51.384;6.908;2023-02-28T14:00:28;3.00;;;2.50;;
23684;SDS011;12020;51.384;6.908;2023-02-28T14:06:08;2.90;;;2.55;;
23684;SDS011;12020;51.384;6.908;2023-02-28T14:08:35;3.00;;;2.70;;
23684;SDS011;12020;51.384;6.908;2023-02-28T14:11:05;3.13;;;2.83;;
23684;SDS011;12020;51.384;6.908;2023-02-28T14:13:42;3.33;;;2.88;;
23684;SDS011;12020;51.384;6.908;2023-02-28T14:16:17;3.30;;;2.72;;
23684;SDS011;12020;51.384;6.908;2023-02-28T14:18:50;2.95;;;2.60;;
23684;SDS011;12020;51.384;6.908;2023-02-28T14:21:25;3.25;;;2.67;;
23684;SDS011;12020;51.384;6.908;2023-02-28T14:32:27;3.05;;;2.75;;
23684;SDS011;12020;51.384;6.908;2023-02-28T14:37:42;3.60;;;3.00;;
23684;SDS011;12020;51.384;6.908;2023-02-28T14:40:14;2.90;;;2.63;;
23684;SDS011;12020;51.384;6.908;2023-02-28T14:42:46;4.22;;;3.08;;
23684;SDS011;12020;51.384;6.908;2023-02-28T14:45:23;5.30;;;2.92;;
23684;SDS011;12020;51.384;6.908;2023-02-28T14:47:50;5.50;;;3.00;;
23684;SDS011;12020;51.384;6.908;2023-02-28T14:50:18;3.58;;;3.10;;
23684;SDS011;12020;51.384;6.908;2023-02-28T14:53:00;3.65;;;3.00;;
23684;SDS011;12020;51.384;6.908;2023-02-28T14:55:31;4.45;;;3.40;;
23684;SDS011;12020;51.384;6.908;2023-02-28T14:58:00;3.83;;;3.22;;
23684;SDS011;12020;51.384;6.908;2023-02-28T15:00:34;3.10;;;2.80;;
23684;SDS011;12020;51.384;6.908;2023-02-28T15:03:18;3.65;;;3.33;;
23684;SDS011;12020;51.384;6.908;2023-02-28T15:05:53;5.10;;;2.97;;
23684;SDS011;12020;51.384;6.908;2023-02-28T15:08:20;3.80;;;3.30;;
23684;SDS011;12020;51.384;6.908;2023-02-28T15:10:57;3.50;;;3.20;;
23684;SDS011;12020;51.384;6.908;2023-02-28T15:18:55;3.88;;;3.22;;
23684;SDS011;12020;51.384;6.908;2023-02-28T15:21:25;4.13;;;3.30;;
23684;SDS011;12020;51.384;6.908;2023-02-28T15:23:58;3.50;;;3.20;;
23684;SDS011;12020;51.384;6.908;2023-02-28T15:26:26;3.65;;;3.30;;
23684;SDS011;12020;51.384;6.908;2023-02-28T15:29:02;3.63;;;3.33;;
23684;SDS011;12020;51.384;6.908;2023-02-28T15:31:32;4.10;;;3.22;;
23684;SDS011;12020;51.384;6.908;2023-02-28T15:34:05;4.07;;;3.50;;
23684;SDS011;12020;51.384;6.908;2023-02-28T15:36:32;4.00;;;3.60;;
23684;SDS011;12020;51.384;6.908;2023-02-28T15:39:02;4.00;;;3.60;;
23684;SDS011;12020;51.384;6.908;2023-02-28T15:41:43;5.90;;;3.97;;
23684;SDS011;12020;51.384;6.908;2023-02-28T15:46:57;3.63;;;3.33;;
23684;SDS011;12020;51.384;6.908;2023-02-28T15:49:35;3.80;;;3.37;;
23684;SDS011;12020;51.384;6.908;2023-02-28T15:52:05;4.00;;;3.25;;
23684;SDS011;12020;51.384;6.908;2023-02-28T15:54:33;3.47;;;3.17;;
23684;SDS011;12020;51.384;6.908;2023-02-28T15:57:03;3.40;;;3.10;;
23684;SDS011;12020;51.384;6.908;2023-02-28T15:59:33;3.88;;;3.38;;
23684;SDS011;12020;51.384;6.908;2023-02-28T16:02:15;3.97;;;3.38;;
23684;SDS011;12020;51.384;6.908;2023-02-28T16:05:01;3.70;;;3.10;;
23684;SDS011;12020;51.384;6.908;2023-02-28T16:07:33;3.55;;;3.25;;
23684;SDS011;12020;51.384;6.908;2023-02-28T16:10:00;3.78;;;3.47;;
23684;SDS011;12020;51.384;6.908;2023-02-28T16:12:31;3.80;;;3.38;;
23684;SDS011;12020;51.384;6.908;2023-02-28T16:14:59;4.55;;;3.50;;
23684;SDS011;12020;51.384;6.908;2023-02-28T16:17:37;3.90;;;3.17;;
23684;SDS011;12020;51.384;6.908;2023-02-28T16:22:49;3.50;;;3.20;;
23684;SDS011;12020;51.384;6.908;2023-02-28T16:25:16;5.60;;;3.40;;
23684;SDS011;12020;51.384;6.908;2023-02-28T16:27:45;3.40;;;3.10;;
23684;SDS011;12020;51.384;6.908;2023-02-28T16:30:18;4.18;;;3.40;;
23684;SDS011;12020;51.384;6.908;2023-02-28T16:32:49;4.15;;;3.33;;
23684;SDS011;12020;51.384;6.908;2023-02-28T16:35:16;4.45;;;3.28;;
23684;SDS011;12020;51.384;6.908;2023-02-28T16:37:43;4.05;;;3.58;;
23684;SDS011;12020;51.384;6.908;2023-02-28T16:40:14;3.97;;;3.53;;
23684;SDS011;12020;51.384;6.908;2023-02-28T16:42:43;3.92;;;3.53;;
23684;SDS011;12020;51.384;6.908;2023-02-28T16:45:14;4.00;;;3.60;;
23684;SDS011;12020;51.384;6.908;2023-02-28T16:47:45;4.80;;;3.78;;
23684;SDS011;12020;51.384;6.908;2023-02-28T16:50:18;4.20;;;3.58;;
23684;SDS011;12020;51.384;6.908;2023-02-28T16:52:46;4.17;;;3.77;;
23684;SDS011;12020;51.384;6.908;2023-02-28T16:55:13;4.68;;;3.50;;
23684;SDS011;12020;51.384;6.908;2023-02-28T16:57:40;3.95;;;3.65;;
23684;SDS011;12020;51.384;6.908;2023-02-28T17:00:10;4.15;;;3.75;;
23684;SDS011;12020;51.384;6.908;2023-02-28T17:02:39;5.15;;;3.75;;
23684;SDS011;12020;51.384;6.908;2023-02-28T17:05:05;4.63;;;3.78;;
23684;SDS011;12020;51.384;6.908;2023-02-28T17:07:31;3.90;;;3.60;;
23684;SDS011;12020;51.384;6.908;2023-02-28T17:09:57;6.37;;;3.80;;
23684;SDS011;12020;51.384;6.908;2023-02-28T17:12:23;3.90;;;3.50;;
23684;SDS011;12020;51.384;6.908;2023-02-28T17:14:48;4.07;;;3.30;;
23684;SDS011;12020;51.384;6.908;2023-02-28T17:17:18;4.23;;;3.63;;
23684;SDS011;12020;51.384;6.908;2023-02-28T17:19:46;3.67;;;3.37;;
23684;SDS011;12020;51.384;6.908;2023-02-28T17:22:12;4.13;;;3.50;;
23684;SDS011;12020;51.384;6.908;2023-02-28T17:24:38;4.07;;;3.53;;
23684;SDS011;12020;51.384;6.908;2023-02-28T17:27:04;4.80;;;3.67;;
23684;SDS011;12020;51.384;6.908;2023-02-28T17:29:30;3.70;;;3.40;;
23684;SDS011;12020;51.384;6.908;2023-02-28T17:34:24;5.90;;;3.90;;
23684;SDS011;12020;51.384;6.908;2023-02-28T17:36:50;3.47;;;3.07;;
23684;SDS011;12020;51.384;6.908;2023-02-28T17:39:17;4.33;;;3.43;;
23684;SDS011;12020;51.384;6.908;2023-02-28T17:41:49;5.13;;;4.00;;
23684;SDS011;12020;51.384;6.908;2023-02-28T17:44:20;3.77;;;3.43;;
23684;SDS011;12020;51.384;6.908;2023-02-28T17:46:47;3.33;;;3.03;;
23684;SDS011;12020;51.384;6.908;2023-02-28T17:49:14;4.63;;;3.53;;
23684;SDS011;12020;51.384;6.908;2023-02-28T17:51:40;3.83;;;3.43;;
23684;SDS011;12020;51.384;6.908;2023-02-28T17:54:06;3.80;;;3.40;;
23684;SDS011;12020;51.384;6.908;2023-02-28T17:56:33;4.50;;;3.13;;
23684;SDS011;12020;51.384;6.908;2023-02-28T17:58:58;5.13;;;3.40;;
23684;SDS011;12020;51.384;6.908;2023-02-28T18:01:24;5.93;;;3.77;;
23684;SDS011;12020;51.384;6.908;2023-02-28T18:03:51;4.17;;;3.67;;
23684;SDS011;12020;51.384;6.908;2023-02-28T18:06:22;7.43;;;3.90;;
23684;SDS011;12020;51.384;6.908;2023-02-28T18:08:55;5.27;;;3.83;;
23684;SDS011;12020;51.384;6.908;2023-02-28T18:11:22;4.33;;;3.83;;
23684;SDS011;12020;51.384;6.908;2023-02-28T18:13:51;5.10;;;3.70;;
23684;SDS011;12020;51.384;6.908;2023-02-28T18:16:20;4.27;;;3.60;;
23684;SDS011;12020;51.384;6.908;2023-02-28T18:18:47;6.07;;;3.80;;
23684;SDS011;12020;51.384;6.908;2023-02-28T18:21:14;4.93;;;4.37;;
23684;SDS011;12020;51.384;6.908;2023-02-28T18:23:43;4.17;;;3.77;;
23684;SDS011;12020;51.384;6.908;2023-02-28T18:26:16;5.10;;;3.80;;
23684;SDS011;12020;51.384;6.908;2023-02-28T18:28:45;4.07;;;3.67;;
23684;SDS011;12020;51.384;6.908;2023-02-28T18:31:13;3.83;;;3.50;;
23684;SDS011;12020;51.384;6.908;2023-02-28T18:38:46;4.40;;;3.73;;
23684;SDS011;12020;51.384;6.908;2023-02-28T18:41:14;7.27;;;4.47;;
23684;SDS011;12020;51.384;6.908;2023-02-28T18:43:44;4.83;;;4.03;;
23684;SDS011;12020;51.384;6.908;2023-02-28T18:46:13;6.60;;;4.10;;
23684;SDS011;12020;51.384;6.908;2023-02-28T18:48:42;5.00;;;4.27;;
23684;SDS011;12020;51.384;6.908;2023-02-28T18:51:10;9.17;;;4.73;;
23684;SDS011;12020;51.384;6.908;2023-02-28T18:53:39;5.57;;;4.60;;
23684;SDS011;12020;51.384;6.908;2023-02-28T18:56:07;7.50;;;4.10;;
23684;SDS011;12020;51.384;6.908;2023-02-28T18:58:35;4.80;;;3.97;;
23684;SDS011;12020;51.384;6.908;2023-02-28T19:01:03;6.27;;;4.33;;
23684;SDS011;12020;51.384;6.908;2023-02-28T19:03:37;5.33;;;4.30;;
23684;SDS011;12020;51.384;6.908;2023-02-28T19:06:03;5.67;;;4.77;;
23684;SDS011;12020;51.384;6.908;2023-02-28T19:08:29;6.10;;;4.47;;
23684;SDS011;12020;51.384;6.908;2023-02-28T19:10:56;5.53;;;4.40;;
23684;SDS011;12020;51.384;6.908;2023-02-28T19:13:24;5.50;;;4.70;;
23684;SDS011;12020;51.384;6.908;2023-02-28T19:15:59;5.83;;;4.53;;
23684;SDS011;12020;51.384;6.908;2023-02-28T19:18:27;5.03;;;4.53;;
23684;SDS011;12020;51.384;6.908;2023-02-28T19:20:54;6.30;;;4.60;;
23684;SDS011;12020;51.384;6.908;2023-02-28T19:23:20;5.07;;;4.53;;
23684;SDS011;12020;51.384;6.908;2023-02-28T19:28:22;5.63;;;4.40;;
23684;SDS011;12020;51.384;6.908;2023-02-28T19:30:50;6.73;;;4.27;;
23684;SDS011;12020;51.384;6.908;2023-02-28T19:33:17;7.10;;;4.57;;
23684;SDS011;12020;51.384;6.908;2023-02-28T19:35:45;6.00;;;4.50;;
23684;SDS011;12020;51.384;6.908;2023-02-28T19:38:13;6.00;;;4.43;;
23684;SDS011;12020;51.384;6.908;2023-02-28T19:40:42;5.83;;;4.23;;
23684;SDS011;12020;51.384;6.908;2023-02-28T19:43:10;5.30;;;4.73;;